sensor_id;sensor_type;location;lat;lon;timestamp;P1;durP1;ratioP1;P2;durP2;ratioP2
53925;SDS011;39836;52.754;6.866;2022-08-21T00:02:21;9.38;;;3.65;;
53925;SDS011;39836;52.754;6.866;2022-08-21T00:04:48;6.13;;;3.30;;
53925;SDS011;39836;52.754;6.866;2022-08-21T00:07:15;10.73;;;5.05;;
53925;SDS011;39836;52.754;6.866;2022-08-21T00:09:42;13.82;;;5.05;;
53925;SDS011;39836;52.754;6.866;2022-08-21T00:12:08;8.68;;;4.47;;
53925;SDS011;39836;52.754;6.866;2022-08-21T00:14:34;11.27;;;5.25;;
53925;SDS011;39836;52.754;6.866;2022-08-21T00:17:02;9.13;;;4.68;;
53925;SDS011;39836;52.754;6.866;2022-08-21T00:19:29;9.65;;;5.07;;
53925;SDS011;39836;52.754;6.866;2022-08-21T00:21:55;11.55;;;5.32;;
53925;SDS011;39836;52.754;6.866;2022-08-21T00:24:21;16.75;;;4.88;;
53925;SDS011;39836;52.754;6.866;2022-08-21T00:26:47;8.68;;;4.35;;
53925;SDS011;39836;52.754;6.866;2022-08-21T00:29:14;13.25;;;4.80;;
53925;SDS011;39836;52.754;6.866;2022-08-21T00:31:40;10.15;;;4.55;;
53925;SDS011;39836;52.754;6.866;2022-08-21T00:34:07;11.80;;;5.30;;
53925;SDS011;39836;52.754;6.866;2022-08-21T00:36:34;10.98;;;4.78;;
53925;SDS011;39836;52.754;6.866;2022-08-21T00:39:00;10.13;;;3.97;;
53925;SDS011;39836;52.754;6.866;2022-08-21T00:41:27;5.63;;;2.92;;
53925;SDS011;39836;52.754;6.866;2022-08-21T00:43:53;5.20;;;2.80;;
53925;SDS011;39836;52.754;6.866;2022-08-21T00:46:19;9.95;;;4.30;;
53925;SDS011;39836;52.754;6.866;2022-08-21T00:48:45;13.77;;;6.85;;
53925;SDS011;39836;52.754;6.866;2022-08-21T00:51:15;11.32;;;6.38;;
53925;SDS011;39836;52.754;6.866;2022-08-21T00:53:48;13.75;;;6.20;;
53925;SDS011;39836;52.754;6.866;2022-08-21T00:56:18;17.90;;;7.38;;
53925;SDS011;39836;52.754;6.866;2022-08-21T00:58:46;18.77;;;6.65;;
53925;SDS011;39836;52.754;6.866;2022-08-21T01:01:12;12.13;;;6.50;;
53925;SDS011;39836;52.754;6.866;2022-08-21T01:03:39;13.57;;;6.55;;
53925;SDS011;39836;52.754;6.866;2022-08-21T01:06:05;14.48;;;6.60;;
53925;SDS011;39836;52.754;6.866;2022-08-21T01:08:32;12.30;;;6.43;;
53925;SDS011;39836;52.754;6.866;2022-08-21T01:10:59;13.05;;;7.03;;
53925;SDS011;39836;52.754;6.866;2022-08-21T01:13:26;15.70;;;7.18;;
53925;SDS011;39836;52.754;6.866;2022-08-21T01:15:55;11.25;;;6.82;;
53925;SDS011;39836;52.754;6.866;2022-08-21T01:18:25;17.33;;;7.18;;
53925;SDS011;39836;52.754;6.866;2022-08-21T01:23:26;10.52;;;5.90;;
53925;SDS011;39836;52.754;6.866;2022-08-21T01:25:52;6.32;;;3.42;;
53925;SDS011;39836;52.754;6.866;2022-08-21T01:28:18;7.88;;;3.70;;
53925;SDS011;39836;52.754;6.866;2022-08-21T01:30:46;8.65;;;3.97;;
53925;SDS011;39836;52.754;6.866;2022-08-21T01:33:12;30.13;;;6.18;;
53925;SDS011;39836;52.754;6.866;2022-08-21T01:35:38;9.55;;;4.15;;
53925;SDS011;39836;52.754;6.866;2022-08-21T01:38:04;8.13;;;4.20;;
53925;SDS011;39836;52.754;6.866;2022-08-21T01:40:29;5.22;;;2.97;;
53925;SDS011;39836;52.754;6.866;2022-08-21T01:42:55;4.10;;;2.72;;
53925;SDS011;39836;52.754;6.866;2022-08-21T01:45:21;3.97;;;2.70;;
53925;SDS011;39836;52.754;6.866;2022-08-21T01:47:47;5.72;;;2.65;;
53925;SDS011;39836;52.754;6.866;2022-08-21T01:50:14;1.38;;;1.10;;
53925;SDS011;39836;52.754;6.866;2022-08-21T01:52:41;3.92;;;1.40;;
53925;SDS011;39836;52.754;6.866;2022-08-21T01:55:07;2.67;;;1.92;;
53925;SDS011;39836;52.754;6.866;2022-08-21T01:57:34;5.53;;;2.78;;
53925;SDS011;39836;52.754;6.866;2022-08-21T02:00:01;6.57;;;4.00;;
53925;SDS011;39836;52.754;6.866;2022-08-21T02:02:29;6.15;;;3.70;;
53925;SDS011;39836;52.754;6.866;2022-08-21T02:04:54;5.30;;;3.65;;
53925;SDS011;39836;52.754;6.866;2022-08-21T02:07:20;5.28;;;3.60;;
53925;SDS011;39836;52.754;6.866;2022-08-21T02:09:46;5.63;;;3.17;;
53925;SDS011;39836;52.754;6.866;2022-08-21T02:12:12;4.95;;;2.90;;
53925;SDS011;39836;52.754;6.866;2022-08-21T02:14:37;3.78;;;2.33;;
53925;SDS011;39836;52.754;6.866;2022-08-21T02:17:04;3.40;;;2.53;;
53925;SDS011;39836;52.754;6.866;2022-08-21T02:19:31;7.80;;;3.28;;
53925;SDS011;39836;52.754;6.866;2022-08-21T02:21:57;4.35;;;3.20;;
53925;SDS011;39836;52.754;6.866;2022-08-21T02:24:22;9.05;;;6.80;;
53925;SDS011;39836;52.754;6.866;2022-08-21T02:26:48;5.05;;;3.35;;
53925;SDS011;39836;52.754;6.866;2022-08-21T02:29:14;2.95;;;2.30;;
53925;SDS011;39836;52.754;6.866;2022-08-21T02:31:39;5.40;;;3.00;;
53925;SDS011;39836;52.754;6.866;2022-08-21T02:34:05;4.00;;;2.53;;
53925;SDS011;39836;52.754;6.866;2022-08-21T02:36:31;2.65;;;1.20;;
53925;SDS011;39836;52.754;6.866;2022-08-21T02:38:56;6.88;;;4.90;;
53925;SDS011;39836;52.754;6.866;2022-08-21T02:41:22;9.23;;;5.32;;
53925;SDS011;39836;52.754;6.866;2022-08-21T02:43:48;10.13;;;5.93;;
53925;SDS011;39836;52.754;6.866;2022-08-21T02:46:15;9.98;;;6.10;;
53925;SDS011;39836;52.754;6.866;2022-08-21T02:48:43;11.60;;;8.55;;
53925;SDS011;39836;52.754;6.866;2022-08-21T02:51:14;16.67;;;10.60;;
53925;SDS011;39836;52.754;6.866;2022-08-21T02:53:42;16.48;;;10.38;;
53925;SDS011;39836;52.754;6.866;2022-08-21T02:56:10;14.10;;;10.23;;
53925;SDS011;39836;52.754;6.866;2022-08-21T02:58:42;12.00;;;7.38;;
53925;SDS011;39836;52.754;6.866;2022-08-21T03:01:14;15.20;;;9.90;;
53925;SDS011;39836;52.754;6.866;2022-08-21T03:03:41;14.90;;;10.10;;
53925;SDS011;39836;52.754;6.866;2022-08-21T03:06:08;16.05;;;11.15;;
53925;SDS011;39836;52.754;6.866;2022-08-21T03:08:36;9.73;;;4.85;;
53925;SDS011;39836;52.754;6.866;2022-08-21T03:11:02;3.88;;;2.38;;
53925;SDS011;39836;52.754;6.866;2022-08-21T03:13:28;9.52;;;2.75;;
53925;SDS011;39836;52.754;6.866;2022-08-21T03:15:54;4.75;;;3.00;;
53925;SDS011;39836;52.754;6.866;2022-08-21T03:18:20;10.48;;;6.03;;
53925;SDS011;39836;52.754;6.866;2022-08-21T03:20:47;13.23;;;9.15;;
53925;SDS011;39836;52.754;6.866;2022-08-21T03:23:14;13.30;;;9.57;;
53925;SDS011;39836;52.754;6.866;2022-08-21T03:25:41;10.48;;;9.38;;
53925;SDS011;39836;52.754;6.866;2022-08-21T03:28:09;11.45;;;7.60;;
53925;SDS011;39836;52.754;6.866;2022-08-21T03:30:36;14.90;;;10.63;;
53925;SDS011;39836;52.754;6.866;2022-08-21T03:33:02;11.38;;;8.50;;
53925;SDS011;39836;52.754;6.866;2022-08-21T03:35:28;9.30;;;6.72;;
53925;SDS011;39836;52.754;6.866;2022-08-21T03:37:54;14.15;;;9.70;;
53925;SDS011;39836;52.754;6.866;2022-08-21T03:40:21;10.95;;;8.65;;
53925;SDS011;39836;52.754;6.866;2022-08-21T03:42:49;10.65;;;6.00;;
53925;SDS011;39836;52.754;6.866;2022-08-21T03:45:15;16.00;;;11.60;;
53925;SDS011;39836;52.754;6.866;2022-08-21T03:50:26;12.20;;;8.93;;
53925;SDS011;39836;52.754;6.866;2022-08-21T03:52:54;15.13;;;9.02;;
53925;SDS011;39836;52.754;6.866;2022-08-21T03:55:21;13.85;;;10.50;;
53925;SDS011;39836;52.754;6.866;2022-08-21T03:57:47;17.30;;;11.05;;
53925;SDS011;39836;52.754;6.866;2022-08-21T04:00:13;14.20;;;11.30;;
53925;SDS011;39836;52.754;6.866;2022-08-21T04:02:40;13.15;;;11.18;;
53925;SDS011;39836;52.754;6.866;2022-08-21T04:05:06;14.52;;;10.55;;
53925;SDS011;39836;52.754;6.866;2022-08-21T04:07:33;19.58;;;11.55;;
53925;SDS011;39836;52.754;6.866;2022-08-21T04:09:58;21.58;;;12.40;;
53925;SDS011;39836;52.754;6.866;2022-08-21T04:12:24;19.88;;;15.38;;
53925;SDS011;39836;52.754;6.866;2022-08-21T04:14:50;18.55;;;14.30;;
53925;SDS011;39836;52.754;6.866;2022-08-21T04:17:16;22.13;;;15.13;;
53925;SDS011;39836;52.754;6.866;2022-08-21T04:19:42;23.48;;;15.70;;
53925;SDS011;39836;52.754;6.866;2022-08-21T04:22:08;22.33;;;16.70;;
53925;SDS011;39836;52.754;6.866;2022-08-21T04:24:34;24.05;;;16.35;;
53925;SDS011;39836;52.754;6.866;2022-08-21T04:27:00;25.33;;;16.77;;
53925;SDS011;39836;52.754;6.866;2022-08-21T04:29:26;25.33;;;16.70;;
53925;SDS011;39836;52.754;6.866;2022-08-21T04:31:52;20.00;;;16.02;;
53925;SDS011;39836;52.754;6.866;2022-08-21T04:34:18;19.58;;;14.57;;
53925;SDS011;39836;52.754;6.866;2022-08-21T04:36:44;20.90;;;14.35;;
53925;SDS011;39836;52.754;6.866;2022-08-21T04:39:10;20.17;;;12.77;;
53925;SDS011;39836;52.754;6.866;2022-08-21T04:41:35;18.35;;;13.88;;
53925;SDS011;39836;52.754;6.866;2022-08-21T04:44:02;21.15;;;13.95;;
53925;SDS011;39836;52.754;6.866;2022-08-21T04:46:29;19.20;;;14.13;;
53925;SDS011;39836;52.754;6.866;2022-08-21T04:48:55;22.35;;;15.10;;
53925;SDS011;39836;52.754;6.866;2022-08-21T04:51:25;20.45;;;15.05;;
53925;SDS011;39836;52.754;6.866;2022-08-21T04:54:11;21.60;;;14.32;;
53925;SDS011;39836;52.754;6.866;2022-08-21T04:56:46;19.05;;;14.27;;
53925;SDS011;39836;52.754;6.866;2022-08-21T04:59:26;19.65;;;14.25;;
53925;SDS011;39836;52.754;6.866;2022-08-21T05:01:55;17.08;;;14.48;;
53925;SDS011;39836;52.754;6.866;2022-08-21T05:04:22;20.85;;;14.75;;
53925;SDS011;39836;52.754;6.866;2022-08-21T05:06:51;20.23;;;13.88;;
53925;SDS011;39836;52.754;6.866;2022-08-21T05:09:19;17.05;;;13.48;;
53925;SDS011;39836;52.754;6.866;2022-08-21T05:11:46;19.10;;;13.63;;
53925;SDS011;39836;52.754;6.866;2022-08-21T05:14:13;15.85;;;13.77;;
53925;SDS011;39836;52.754;6.866;2022-08-21T05:16:40;16.23;;;12.88;;
53925;SDS011;39836;52.754;6.866;2022-08-21T05:19:07;19.98;;;13.93;;
53925;SDS011;39836;52.754;6.866;2022-08-21T05:21:34;18.33;;;13.05;;
53925;SDS011;39836;52.754;6.866;2022-08-21T05:24:00;18.80;;;12.73;;
53925;SDS011;39836;52.754;6.866;2022-08-21T05:26:27;19.17;;;13.85;;
53925;SDS011;39836;52.754;6.866;2022-08-21T05:28:53;19.90;;;13.23;;
53925;SDS011;39836;52.754;6.866;2022-08-21T05:31:18;16.98;;;13.23;;
53925;SDS011;39836;52.754;6.866;2022-08-21T05:33:44;14.93;;;12.80;;
53925;SDS011;39836;52.754;6.866;2022-08-21T05:36:09;17.08;;;13.55;;
53925;SDS011;39836;52.754;6.866;2022-08-21T05:38:36;18.85;;;13.18;;
53925;SDS011;39836;52.754;6.866;2022-08-21T05:41:02;21.67;;;12.45;;
53925;SDS011;39836;52.754;6.866;2022-08-21T05:43:28;16.52;;;12.70;;
53925;SDS011;39836;52.754;6.866;2022-08-21T05:45:54;18.17;;;12.10;;
53925;SDS011;39836;52.754;6.866;2022-08-21T05:48:22;22.17;;;13.90;;
53925;SDS011;39836;52.754;6.866;2022-08-21T05:50:49;21.33;;;13.77;;
53925;SDS011;39836;52.754;6.866;2022-08-21T05:53:17;20.05;;;14.90;;
53925;SDS011;39836;52.754;6.866;2022-08-21T05:55:44;24.23;;;14.07;;
53925;SDS011;39836;52.754;6.866;2022-08-21T05:58:10;21.00;;;13.75;;
53925;SDS011;39836;52.754;6.866;2022-08-21T06:00:37;20.83;;;13.73;;
53925;SDS011;39836;52.754;6.866;2022-08-21T06:03:02;17.67;;;12.60;;
53925;SDS011;39836;52.754;6.866;2022-08-21T06:05:28;18.13;;;11.95;;
53925;SDS011;39836;52.754;6.866;2022-08-21T06:07:54;20.92;;;12.52;;
53925;SDS011;39836;52.754;6.866;2022-08-21T06:10:20;18.23;;;11.55;;
53925;SDS011;39836;52.754;6.866;2022-08-21T06:12:45;20.67;;;11.90;;
53925;SDS011;39836;52.754;6.866;2022-08-21T06:15:11;19.17;;;12.32;;
53925;SDS011;39836;52.754;6.866;2022-08-21T06:17:37;17.92;;;11.15;;
53925;SDS011;39836;52.754;6.866;2022-08-21T06:20:02;20.95;;;11.27;;
53925;SDS011;39836;52.754;6.866;2022-08-21T06:22:29;16.08;;;11.38;;
53925;SDS011;39836;52.754;6.866;2022-08-21T06:24:55;18.15;;;10.98;;
53925;SDS011;39836;52.754;6.866;2022-08-21T06:27:21;15.18;;;10.23;;
53925;SDS011;39836;52.754;6.866;2022-08-21T06:29:47;20.55;;;11.38;;
53925;SDS011;39836;52.754;6.866;2022-08-21T06:32:13;14.68;;;10.98;;
53925;SDS011;39836;52.754;6.866;2022-08-21T06:34:40;19.15;;;11.60;;
53925;SDS011;39836;52.754;6.866;2022-08-21T06:37:06;20.40;;;11.02;;
53925;SDS011;39836;52.754;6.866;2022-08-21T06:39:33;16.85;;;11.02;;
53925;SDS011;39836;52.754;6.866;2022-08-21T06:41:59;17.10;;;10.68;;
53925;SDS011;39836;52.754;6.866;2022-08-21T06:44:25;21.50;;;11.32;;
53925;SDS011;39836;52.754;6.866;2022-08-21T06:46:52;18.98;;;10.93;;
53925;SDS011;39836;52.754;6.866;2022-08-21T06:49:18;19.65;;;11.23;;
53925;SDS011;39836;52.754;6.866;2022-08-21T06:51:44;19.38;;;10.35;;
53925;SDS011;39836;52.754;6.866;2022-08-21T06:54:10;22.85;;;11.32;;
53925;SDS011;39836;52.754;6.866;2022-08-21T06:56:36;15.30;;;10.18;;
53925;SDS011;39836;52.754;6.866;2022-08-21T06:59:03;20.65;;;10.07;;
53925;SDS011;39836;52.754;6.866;2022-08-21T07:01:30;20.90;;;10.15;;
53925;SDS011;39836;52.754;6.866;2022-08-21T07:03:56;15.27;;;9.52;;
53925;SDS011;39836;52.754;6.866;2022-08-21T07:06:21;16.20;;;8.80;;
53925;SDS011;39836;52.754;6.866;2022-08-21T07:08:47;15.82;;;8.25;;
53925;SDS011;39836;52.754;6.866;2022-08-21T07:11:20;13.60;;;8.65;;
53925;SDS011;39836;52.754;6.866;2022-08-21T07:13:47;20.77;;;8.15;;
53925;SDS011;39836;52.754;6.866;2022-08-21T07:16:14;20.02;;;8.20;;
53925;SDS011;39836;52.754;6.866;2022-08-21T07:18:40;16.23;;;8.90;;
53925;SDS011;39836;52.754;6.866;2022-08-21T07:21:06;19.38;;;8.05;;
53925;SDS011;39836;52.754;6.866;2022-08-21T07:23:35;15.38;;;7.25;;
53925;SDS011;39836;52.754;6.866;2022-08-21T07:26:04;16.23;;;7.30;;
53925;SDS011;39836;52.754;6.866;2022-08-21T07:28:31;23.55;;;7.50;;
53925;SDS011;39836;52.754;6.866;2022-08-21T07:30:58;18.77;;;6.68;;
53925;SDS011;39836;52.754;6.866;2022-08-21T07:33:25;15.07;;;5.88;;
53925;SDS011;39836;52.754;6.866;2022-08-21T07:35:53;16.52;;;6.53;;
53925;SDS011;39836;52.754;6.866;2022-08-21T07:38:19;16.38;;;6.45;;
53925;SDS011;39836;52.754;6.866;2022-08-21T07:40:46;16.75;;;6.03;;
53925;SDS011;39836;52.754;6.866;2022-08-21T07:43:13;16.30;;;5.53;;
53925;SDS011;39836;52.754;6.866;2022-08-21T07:45:41;15.50;;;5.57;;
53925;SDS011;39836;52.754;6.866;2022-08-21T07:48:08;10.88;;;5.40;;
53925;SDS011;39836;52.754;6.866;2022-08-21T07:50:34;10.15;;;4.38;;
53925;SDS011;39836;52.754;6.866;2022-08-21T07:53:00;18.88;;;5.10;;
53925;SDS011;39836;52.754;6.866;2022-08-21T07:55:27;18.50;;;4.20;;
53925;SDS011;39836;52.754;6.866;2022-08-21T07:57:53;10.13;;;4.05;;
53925;SDS011;39836;52.754;6.866;2022-08-21T08:00:22;12.07;;;4.75;;
53925;SDS011;39836;52.754;6.866;2022-08-21T08:02:53;12.93;;;4.80;;
53925;SDS011;39836;52.754;6.866;2022-08-21T08:05:20;11.85;;;4.28;;
53925;SDS011;39836;52.754;6.866;2022-08-21T08:07:48;14.25;;;4.63;;
53925;SDS011;39836;52.754;6.866;2022-08-21T08:10:15;16.42;;;4.50;;
53925;SDS011;39836;52.754;6.866;2022-08-21T08:12:44;14.07;;;4.50;;
53925;SDS011;39836;52.754;6.866;2022-08-21T08:15:17;15.70;;;4.68;;
53925;SDS011;39836;52.754;6.866;2022-08-21T08:17:47;12.30;;;4.03;;
53925;SDS011;39836;52.754;6.866;2022-08-21T08:20:14;14.65;;;4.43;;
53925;SDS011;39836;52.754;6.866;2022-08-21T08:22:43;11.10;;;4.22;;
53925;SDS011;39836;52.754;6.866;2022-08-21T08:25:11;15.05;;;4.18;;
53925;SDS011;39836;52.754;6.866;2022-08-21T08:27:39;11.25;;;4.05;;
53925;SDS011;39836;52.754;6.866;2022-08-21T08:30:06;15.63;;;4.47;;
53925;SDS011;39836;52.754;6.866;2022-08-21T08:32:33;14.50;;;4.75;;
53925;SDS011;39836;52.754;6.866;2022-08-21T08:34:59;17.48;;;4.40;;
53925;SDS011;39836;52.754;6.866;2022-08-21T08:37:25;15.27;;;4.70;;
53925;SDS011;39836;52.754;6.866;2022-08-21T08:39:51;14.73;;;4.32;;
53925;SDS011;39836;52.754;6.866;2022-08-21T08:42:23;12.27;;;3.67;;
53925;SDS011;39836;52.754;6.866;2022-08-21T08:45:00;9.98;;;4.38;;
53925;SDS011;39836;52.754;6.866;2022-08-21T08:47:29;12.23;;;4.30;;
53925;SDS011;39836;52.754;6.866;2022-08-21T08:50:12;12.73;;;4.72;;
53925;SDS011;39836;52.754;6.866;2022-08-21T08:55:27;11.88;;;4.10;;
53925;SDS011;39836;52.754;6.866;2022-08-21T08:58:02;14.02;;;4.53;;
53925;SDS011;39836;52.754;6.866;2022-08-21T09:00:29;11.80;;;4.40;;
53925;SDS011;39836;52.754;6.866;2022-08-21T09:02:56;10.38;;;4.72;;
53925;SDS011;39836;52.754;6.866;2022-08-21T09:05:29;12.68;;;4.35;;
53925;SDS011;39836;52.754;6.866;2022-08-21T09:16:46;10.02;;;4.35;;
53925;SDS011;39836;52.754;6.866;2022-08-21T09:25:46;10.82;;;3.42;;
53925;SDS011;39836;52.754;6.866;2022-08-21T09:28:14;11.38;;;4.07;;
53925;SDS011;39836;52.754;6.866;2022-08-21T09:30:40;9.75;;;3.58;;
53925;SDS011;39836;52.754;6.866;2022-08-21T09:33:07;10.23;;;3.30;;
53925;SDS011;39836;52.754;6.866;2022-08-21T09:35:36;11.38;;;2.92;;
53925;SDS011;39836;52.754;6.866;2022-08-21T09:38:22;11.50;;;2.60;;
53925;SDS011;39836;52.754;6.866;2022-08-21T09:41:06;9.38;;;2.83;;
53925;SDS011;39836;52.754;6.866;2022-08-21T09:43:33;7.30;;;3.20;;
53925;SDS011;39836;52.754;6.866;2022-08-21T09:46:04;7.10;;;3.10;;
53925;SDS011;39836;52.754;6.866;2022-08-21T09:48:42;8.53;;;2.77;;
53925;SDS011;39836;52.754;6.866;2022-08-21T09:56:38;9.15;;;2.72;;
53925;SDS011;39836;52.754;6.866;2022-08-21T09:59:37;7.63;;;2.65;;
53925;SDS011;39836;52.754;6.866;2022-08-21T10:02:19;10.07;;;3.88;;
53925;SDS011;39836;52.754;6.866;2022-08-21T10:04:55;10.57;;;2.80;;
53925;SDS011;39836;52.754;6.866;2022-08-21T10:07:23;9.20;;;3.20;;
53925;SDS011;39836;52.754;6.866;2022-08-21T10:10:04;8.85;;;3.17;;
53925;SDS011;39836;52.754;6.866;2022-08-21T10:12:41;9.45;;;2.60;;
53925;SDS011;39836;52.754;6.866;2022-08-21T10:15:16;9.65;;;2.53;;
53925;SDS011;39836;52.754;6.866;2022-08-21T10:18:26;13.48;;;3.67;;
53925;SDS011;39836;52.754;6.866;2022-08-21T10:39:53;6.55;;;2.17;;
53925;SDS011;39836;52.754;6.866;2022-08-21T10:48:41;8.40;;;2.13;;
53925;SDS011;39836;52.754;6.866;2022-08-21T10:51:19;9.50;;;2.53;;
53925;SDS011;39836;52.754;6.866;2022-08-21T10:56:30;12.35;;;3.17;;
53925;SDS011;39836;52.754;6.866;2022-08-21T11:01:49;12.48;;;2.70;;
53925;SDS011;39836;52.754;6.866;2022-08-21T11:04:29;10.20;;;2.97;;
53925;SDS011;39836;52.754;6.866;2022-08-21T11:07:30;12.70;;;3.05;;
53925;SDS011;39836;52.754;6.866;2022-08-21T11:09:58;8.07;;;2.47;;
53925;SDS011;39836;52.754;6.866;2022-08-21T11:12:34;11.35;;;2.75;;
53925;SDS011;39836;52.754;6.866;2022-08-21T11:15:23;10.63;;;2.35;;
53925;SDS011;39836;52.754;6.866;2022-08-21T11:17:58;7.13;;;2.00;;
53925;SDS011;39836;52.754;6.866;2022-08-21T11:26:01;8.02;;;2.70;;
53925;SDS011;39836;52.754;6.866;2022-08-21T11:28:36;10.02;;;2.60;;
53925;SDS011;39836;52.754;6.866;2022-08-21T11:36:53;7.20;;;2.20;;
53925;SDS011;39836;52.754;6.866;2022-08-21T11:39:41;10.50;;;2.53;;
53925;SDS011;39836;52.754;6.866;2022-08-21T11:50:36;8.57;;;1.90;;
53925;SDS011;39836;52.754;6.866;2022-08-21T11:53:08;7.82;;;1.75;;
53925;SDS011;39836;52.754;6.866;2022-08-21T12:00:58;8.07;;;2.13;;
53925;SDS011;39836;52.754;6.866;2022-08-21T12:03:39;8.73;;;1.80;;
53925;SDS011;39836;52.754;6.866;2022-08-21T12:06:12;9.13;;;2.08;;
53925;SDS011;39836;52.754;6.866;2022-08-21T12:08:43;6.75;;;1.90;;
53925;SDS011;39836;52.754;6.866;2022-08-21T12:16:29;9.60;;;2.22;;
53925;SDS011;39836;52.754;6.866;2022-08-21T12:19:11;9.95;;;1.90;;
53925;SDS011;39836;52.754;6.866;2022-08-21T12:21:51;12.07;;;2.05;;
53925;SDS011;39836;52.754;6.866;2022-08-21T12:29:23;9.63;;;1.88;;
53925;SDS011;39836;52.754;6.866;2022-08-21T12:34:37;10.15;;;1.92;;
53925;SDS011;39836;52.754;6.866;2022-08-21T12:39:54;7.88;;;1.63;;
53925;SDS011;39836;52.754;6.866;2022-08-21T12:42:29;7.25;;;1.60;;
53925;SDS011;39836;52.754;6.866;2022-08-21T12:45:07;8.93;;;1.90;;
53925;SDS011;39836;52.754;6.866;2022-08-21T12:50:21;9.93;;;1.70;;
53925;SDS011;39836;52.754;6.866;2022-08-21T12:53:06;6.57;;;1.63;;
53925;SDS011;39836;52.754;6.866;2022-08-21T12:55:40;8.55;;;1.90;;
53925;SDS011;39836;52.754;6.866;2022-08-21T12:58:16;10.77;;;1.95;;
53925;SDS011;39836;52.754;6.866;2022-08-21T13:00:54;11.75;;;2.30;;
53925;SDS011;39836;52.754;6.866;2022-08-21T13:03:24;9.38;;;2.65;;
53925;SDS011;39836;52.754;6.866;2022-08-21T13:05:50;8.43;;;2.00;;
53925;SDS011;39836;52.754;6.866;2022-08-21T13:08:18;9.70;;;1.98;;
53925;SDS011;39836;52.754;6.866;2022-08-21T13:10:46;15.15;;;2.80;;
53925;SDS011;39836;52.754;6.866;2022-08-21T13:13:17;8.02;;;1.83;;
53925;SDS011;39836;52.754;6.866;2022-08-21T13:15:46;9.60;;;2.13;;
53925;SDS011;39836;52.754;6.866;2022-08-21T13:18:23;8.43;;;1.98;;
53925;SDS011;39836;52.754;6.866;2022-08-21T13:20:50;11.85;;;2.08;;
53925;SDS011;39836;52.754;6.866;2022-08-21T13:23:27;8.98;;;1.80;;
53925;SDS011;39836;52.754;6.866;2022-08-21T13:25:55;10.20;;;2.08;;
53925;SDS011;39836;52.754;6.866;2022-08-21T13:28:21;9.80;;;2.05;;
53925;SDS011;39836;52.754;6.866;2022-08-21T13:30:49;8.95;;;1.60;;
53925;SDS011;39836;52.754;6.866;2022-08-21T13:33:17;11.23;;;2.38;;
53925;SDS011;39836;52.754;6.866;2022-08-21T13:38:21;7.53;;;1.90;;
53925;SDS011;39836;52.754;6.866;2022-08-21T13:40:51;8.20;;;1.70;;
53925;SDS011;39836;52.754;6.866;2022-08-21T13:43:24;8.77;;;2.00;;
53925;SDS011;39836;52.754;6.866;2022-08-21T13:45:54;10.15;;;1.80;;
53925;SDS011;39836;52.754;6.866;2022-08-21T13:48:21;7.10;;;1.80;;
53925;SDS011;39836;52.754;6.866;2022-08-21T13:50:50;13.43;;;2.72;;
53925;SDS011;39836;52.754;6.866;2022-08-21T13:53:35;9.40;;;2.40;;
53925;SDS011;39836;52.754;6.866;2022-08-21T13:56:20;7.47;;;1.77;;
53925;SDS011;39836;52.754;6.866;2022-08-21T13:58:59;10.30;;;2.58;;
53925;SDS011;39836;52.754;6.866;2022-08-21T14:01:28;7.80;;;1.92;;
53925;SDS011;39836;52.754;6.866;2022-08-21T14:03:55;10.52;;;2.03;;
53925;SDS011;39836;52.754;6.866;2022-08-21T14:06:26;9.90;;;1.85;;
53925;SDS011;39836;52.754;6.866;2022-08-21T14:08:58;10.30;;;2.47;;
53925;SDS011;39836;52.754;6.866;2022-08-21T14:11:27;8.20;;;1.90;;
53925;SDS011;39836;52.754;6.866;2022-08-21T14:13:58;10.27;;;1.88;;
53925;SDS011;39836;52.754;6.866;2022-08-21T14:16:27;8.65;;;1.60;;
53925;SDS011;39836;52.754;6.866;2022-08-21T14:21:38;7.00;;;1.55;;
53925;SDS011;39836;52.754;6.866;2022-08-21T14:24:12;11.52;;;1.98;;
53925;SDS011;39836;52.754;6.866;2022-08-21T14:26:50;7.78;;;1.67;;
53925;SDS011;39836;52.754;6.866;2022-08-21T14:29:19;8.05;;;1.52;;
53925;SDS011;39836;52.754;6.866;2022-08-21T14:31:50;7.88;;;1.95;;
53925;SDS011;39836;52.754;6.866;2022-08-21T14:34:17;9.90;;;1.90;;
53925;SDS011;39836;52.754;6.866;2022-08-21T14:36:43;8.13;;;2.03;;
53925;SDS011;39836;52.754;6.866;2022-08-21T14:39:09;8.02;;;2.08;;
53925;SDS011;39836;52.754;6.866;2022-08-21T14:41:35;6.07;;;1.83;;
53925;SDS011;39836;52.754;6.866;2022-08-21T14:44:02;10.77;;;1.88;;
53925;SDS011;39836;52.754;6.866;2022-08-21T14:46:30;8.75;;;2.17;;
53925;SDS011;39836;52.754;6.866;2022-08-21T14:48:57;6.30;;;1.73;;
53925;SDS011;39836;52.754;6.866;2022-08-21T14:51:23;7.82;;;2.13;;
53925;SDS011;39836;52.754;6.866;2022-08-21T14:53:49;9.23;;;1.98;;
53925;SDS011;39836;52.754;6.866;2022-08-21T14:56:15;9.20;;;2.38;;
53925;SDS011;39836;52.754;6.866;2022-08-21T14:58:45;10.88;;;2.15;;
53925;SDS011;39836;52.754;6.866;2022-08-21T15:01:14;13.57;;;2.78;;
53925;SDS011;39836;52.754;6.866;2022-08-21T15:03:42;6.60;;;2.00;;
53925;SDS011;39836;52.754;6.866;2022-08-21T15:06:08;10.43;;;2.22;;
53925;SDS011;39836;52.754;6.866;2022-08-21T15:08:34;10.38;;;2.30;;
53925;SDS011;39836;52.754;6.866;2022-08-21T15:11:01;12.10;;;2.10;;
53925;SDS011;39836;52.754;6.866;2022-08-21T15:13:28;10.90;;;2.25;;
53925;SDS011;39836;52.754;6.866;2022-08-21T15:15:54;12.05;;;2.42;;
53925;SDS011;39836;52.754;6.866;2022-08-21T15:18:21;11.90;;;2.20;;
53925;SDS011;39836;52.754;6.866;2022-08-21T15:20:50;9.13;;;2.00;;
53925;SDS011;39836;52.754;6.866;2022-08-21T15:23:16;7.28;;;2.20;;
53925;SDS011;39836;52.754;6.866;2022-08-21T15:25:43;9.23;;;1.98;;
53925;SDS011;39836;52.754;6.866;2022-08-21T15:28:11;8.65;;;2.13;;
53925;SDS011;39836;52.754;6.866;2022-08-21T15:30:39;11.13;;;2.30;;
53925;SDS011;39836;52.754;6.866;2022-08-21T15:33:06;13.15;;;2.30;;
53925;SDS011;39836;52.754;6.866;2022-08-21T15:35:32;6.53;;;2.05;;
53925;SDS011;39836;52.754;6.866;2022-08-21T15:37:58;9.80;;;2.40;;
53925;SDS011;39836;52.754;6.866;2022-08-21T15:40:24;11.18;;;2.83;;
53925;SDS011;39836;52.754;6.866;2022-08-21T15:42:51;9.35;;;2.30;;
53925;SDS011;39836;52.754;6.866;2022-08-21T15:45:21;9.75;;;2.47;;
53925;SDS011;39836;52.754;6.866;2022-08-21T15:47:47;5.82;;;1.88;;
53925;SDS011;39836;52.754;6.866;2022-08-21T15:50:14;8.73;;;2.08;;
53925;SDS011;39836;52.754;6.866;2022-08-21T15:52:40;9.60;;;2.60;;
53925;SDS011;39836;52.754;6.866;2022-08-21T15:55:06;7.97;;;2.35;;
53925;SDS011;39836;52.754;6.866;2022-08-21T15:57:33;10.23;;;2.35;;
53925;SDS011;39836;52.754;6.866;2022-08-21T16:00:03;11.50;;;2.67;;
53925;SDS011;39836;52.754;6.866;2022-08-21T16:02:36;8.40;;;2.58;;
53925;SDS011;39836;52.754;6.866;2022-08-21T16:05:03;9.82;;;2.63;;
53925;SDS011;39836;52.754;6.866;2022-08-21T16:07:29;10.63;;;2.30;;
53925;SDS011;39836;52.754;6.866;2022-08-21T16:09:55;9.43;;;2.45;;
53925;SDS011;39836;52.754;6.866;2022-08-21T16:12:23;10.02;;;2.58;;
53925;SDS011;39836;52.754;6.866;2022-08-21T16:14:56;9.70;;;2.40;;
53925;SDS011;39836;52.754;6.866;2022-08-21T16:17:35;18.52;;;2.55;;
53925;SDS011;39836;52.754;6.866;2022-08-21T16:20:04;13.45;;;2.67;;
53925;SDS011;39836;52.754;6.866;2022-08-21T16:22:33;9.52;;;2.40;;
53925;SDS011;39836;52.754;6.866;2022-08-21T16:24:58;9.80;;;2.05;;
53925;SDS011;39836;52.754;6.866;2022-08-21T16:27:24;11.57;;;2.47;;
53925;SDS011;39836;52.754;6.866;2022-08-21T16:29:50;8.65;;;2.10;;
53925;SDS011;39836;52.754;6.866;2022-08-21T16:32:16;6.20;;;1.95;;
53925;SDS011;39836;52.754;6.866;2022-08-21T16:34:44;9.57;;;2.10;;